createdAt,value
2023-05-05T00:00:17.857Z,8.98
2023-05-05T00:10:52.669Z,8.96
2023-05-05T00:15:56.573Z,8.93
2023-05-05T00:21:02.522Z,9.26
2023-05-05T00:26:08.072Z,9.22
2023-05-05T00:31:12.166Z,9.04
2023-05-05T00:36:17.615Z,8.96
2023-05-05T00:41:21.647Z,8.73
2023-05-05T00:46:27.122Z,8.52
2023-05-05T00:51:32.873Z,8.74
2023-05-05T00:56:38.025Z,8.89
2023-05-05T01:01:42.326Z,8.91
2023-05-05T01:06:55.516Z,9.09
2023-05-05T01:12:08.666Z,9.07
2023-05-05T01:17:18.350Z,9.23
2023-05-05T01:22:29.961Z,9.38
2023-05-05T01:27:56.311Z,9.50
2023-05-05T01:33:06.803Z,9.01
2023-05-05T01:38:17.863Z,9.01
2023-05-05T01:43:24.886Z,9.03
2023-05-05T01:48:31.292Z,8.90
2023-05-05T01:53:37.664Z,9.06
2023-05-05T01:58:45.215Z,9.24
2023-05-05T02:03:52.712Z,9.22
2023-05-05T02:08:58.560Z,9.21
2023-05-05T02:14:05.429Z,9.31
2023-05-05T02:19:12.344Z,9.39
2023-05-05T02:24:16.530Z,9.25
2023-05-05T02:29:23.899Z,9.15
2023-05-05T02:34:31.758Z,8.82
2023-05-05T02:39:43.732Z,8.77
2023-05-05T02:44:56.098Z,8.88
2023-05-05T02:50:04.263Z,9.22
2023-05-05T02:55:11.099Z,9.32
2023-05-05T03:00:25.517Z,9.37
2023-05-05T03:05:38.404Z,9.36
2023-05-05T03:10:48.054Z,9.05
2023-05-05T03:15:54.496Z,9.05
2023-05-05T03:21:08.717Z,9.34
2023-05-05T03:26:18.765Z,8.98
2023-05-05T03:31:23.736Z,9.12
2023-05-05T03:36:33.548Z,9.07
2023-05-05T03:41:38.248Z,9.07
2023-05-05T03:46:45.233Z,9.35
2023-05-05T03:51:53.449Z,9.18
2023-05-05T03:56:58.315Z,9.37
2023-05-05T04:02:03.174Z,9.19
2023-05-05T04:07:08.967Z,9.33
2023-05-05T04:12:13.299Z,9.51
2023-05-05T04:17:17.695Z,9.34
2023-05-05T04:22:23.288Z,9.55
2023-05-05T04:27:30.449Z,9.64
2023-05-05T04:32:36.885Z,9.74
2023-05-05T04:37:43.330Z,9.70
2023-05-05T04:42:47.855Z,9.88
2023-05-05T04:47:53.258Z,10.18
2023-05-05T04:53:00.348Z,10.26
2023-05-05T04:58:04.777Z,10.35
2023-05-05T05:03:10.239Z,10.52
2023-05-05T05:08:16.889Z,10.52
2023-05-05T05:13:20.941Z,10.71
2023-05-05T05:18:25.368Z,10.58
2023-05-05T05:23:32.585Z,10.51
2023-05-05T05:28:37.264Z,10.51
2023-05-05T05:33:41.870Z,10.42
2023-05-05T05:38:48.238Z,10.33
2023-05-05T05:43:52.543Z,10.60
2023-05-05T05:48:57.429Z,10.58
2023-05-05T05:54:03.111Z,10.82
2023-05-05T05:59:10.442Z,10.75
2023-05-05T06:04:17.058Z,11.07
2023-05-05T06:09:23.154Z,11.31
2023-05-05T06:14:28.587Z,11.71
2023-05-05T06:19:33.090Z,11.83
2023-05-05T06:24:38.657Z,11.87
2023-05-05T06:29:43.352Z,11.88
2023-05-05T06:34:48.341Z,12.01
2023-05-05T06:39:53.721Z,12.26
2023-05-05T06:44:59.545Z,12.36
2023-05-05T06:50:04.479Z,12.46
2023-05-05T06:55:11.549Z,12.72
2023-05-05T07:00:17.702Z,12.61
2023-05-05T07:05:22.445Z,12.88
2023-05-05T07:10:28.914Z,13.28
2023-05-05T07:15:33.268Z,13.10
2023-05-05T07:20:37.318Z,13.29
2023-05-05T07:25:42.796Z,13.38
2023-05-05T07:30:46.904Z,13.22
2023-05-05T07:35:51.153Z,13.59
2023-05-05T07:40:56.654Z,13.91
2023-05-05T07:46:00.681Z,14.43
2023-05-05T07:51:06.134Z,14.42
2023-05-05T07:56:11.880Z,14.42
2023-05-05T08:01:16.268Z,14.63
2023-05-05T08:06:22.337Z,14.88
2023-05-05T08:11:29.717Z,15.30
2023-05-05T08:16:33.871Z,14.98
2023-05-05T08:21:38.994Z,15.53
2023-05-05T08:26:44.633Z,15.85
2023-05-05T08:31:49.583Z,15.71
2023-05-05T08:36:53.793Z,16.43
2023-05-05T08:41:59.410Z,16.39
2023-05-05T08:47:03.905Z,16.92
2023-05-05T08:52:11.740Z,16.71
2023-05-05T08:57:23.028Z,16.89
2023-05-05T09:02:30.179Z,17.68
2023-05-05T09:07:36.164Z,17.71
2023-05-05T09:12:42.547Z,17.67
2023-05-05T09:17:47.719Z,17.62
2023-05-05T09:22:53.254Z,17.63
2023-05-05T09:27:58.912Z,17.29
2023-05-05T09:33:03.886Z,17.34
2023-05-05T09:38:17.379Z,17.45
2023-05-05T09:43:24.941Z,17.56
2023-05-05T09:48:30.707Z,18.04
2023-05-05T09:53:41.042Z,18.03
2023-05-05T09:58:46.896Z,19.30
2023-05-05T10:03:54.295Z,18.65
2023-05-05T10:09:02.694Z,18.99
2023-05-05T10:14:12.203Z,19.32
2023-05-05T10:19:17.146Z,19.22
2023-05-05T10:24:40.909Z,19.25
2023-05-05T10:29:54.144Z,19.53
2023-05-05T10:35:01.860Z,20.62
2023-05-05T10:40:07.372Z,20.91
2023-05-05T10:45:13.162Z,20.79
2023-05-05T10:50:25.949Z,21.13
2023-05-05T10:55:41.176Z,21.75
2023-05-05T11:00:54.889Z,20.58
2023-05-05T11:06:12.695Z,20.63
2023-05-05T11:11:18.340Z,21.05
2023-05-05T11:16:48.361Z,21.24
2023-05-05T11:22:02.623Z,21.77
2023-05-05T11:27:11.556Z,22.08
2023-05-05T11:32:17.307Z,22.07
2023-05-05T11:37:24.151Z,21.73
2023-05-05T11:42:29.297Z,21.96
2023-05-05T11:47:34.747Z,21.89
2023-05-05T11:52:39.712Z,21.76
2023-05-05T11:57:45.858Z,22.06
2023-05-05T12:02:59.248Z,22.04
2023-05-05T12:08:03.444Z,21.92
2023-05-05T12:13:21.606Z,21.99
2023-05-05T12:18:27.216Z,22.17
2023-05-05T12:23:39.154Z,21.70
2023-05-05T12:28:47.405Z,21.19
2023-05-05T12:33:53.830Z,21.21
2023-05-05T12:38:58.383Z,20.98
2023-05-05T12:44:04.433Z,21.25
2023-05-05T12:49:10.347Z,21.46
2023-05-05T12:54:14.360Z,21.59
2023-05-05T12:59:31.237Z,21.80
2023-05-05T13:09:53.216Z,21.60
2023-05-05T13:14:57.713Z,21.80
2023-05-05T13:20:03.455Z,21.76
2023-05-05T13:25:08.465Z,21.79
2023-05-05T13:30:13.738Z,21.62
2023-05-05T13:35:19.722Z,21.21
2023-05-05T13:40:26.188Z,21.13
2023-05-05T13:45:33.029Z,20.75
2023-05-05T13:50:38.939Z,20.83
2023-05-05T13:55:43.478Z,20.79
2023-05-05T14:00:47.821Z,20.78
2023-05-05T14:05:53.456Z,20.85
2023-05-05T14:10:58.312Z,20.73
2023-05-05T14:16:02.384Z,20.18
2023-05-05T14:21:08.951Z,19.95
2023-05-05T14:26:13.177Z,19.98
2023-05-05T14:31:18.864Z,19.84
2023-05-05T14:36:24.776Z,19.68
2023-05-05T14:41:29.455Z,19.32
2023-05-05T14:46:34.800Z,19.12
2023-05-05T14:51:40.303Z,19.02
2023-05-05T14:56:45.961Z,18.85
2023-05-05T15:01:50.557Z,18.78
2023-05-05T15:06:56.070Z,18.77
2023-05-05T15:12:01.175Z,18.48
2023-05-05T15:17:05.706Z,18.29
2023-05-05T15:22:13.196Z,18.06
2023-05-05T15:27:18.344Z,17.77
2023-05-05T15:32:22.860Z,17.44
2023-05-05T15:37:29.593Z,17.08
2023-05-05T15:42:34.830Z,16.95
2023-05-05T15:47:39.124Z,16.88
2023-05-05T15:52:45.159Z,16.59
2023-05-05T15:57:49.396Z,16.70
2023-05-05T16:02:53.700Z,16.65
2023-05-05T16:07:59.209Z,16.52
2023-05-05T16:13:05.488Z,16.45
2023-05-05T16:18:10.105Z,16.32
2023-05-05T16:23:15.738Z,16.35
2023-05-05T16:28:19.730Z,16.46
2023-05-05T16:33:24.961Z,16.35
2023-05-05T16:38:30.469Z,16.17
2023-05-05T16:43:37.282Z,16.01
2023-05-05T16:48:41.647Z,15.88
2023-05-05T16:53:49.148Z,16.05
2023-05-05T16:58:53.826Z,15.88
2023-05-05T17:04:01.958Z,15.65
2023-05-05T17:09:07.586Z,15.54
2023-05-05T17:14:11.720Z,15.70
2023-05-05T17:19:15.838Z,15.16
2023-05-05T17:24:21.324Z,15.17
2023-05-05T17:29:25.403Z,15.01
2023-05-05T17:34:29.420Z,15.17
2023-05-05T17:39:35.408Z,15.16
2023-05-05T17:44:39.825Z,14.92
2023-05-05T17:49:43.880Z,14.83
2023-05-05T17:54:50.323Z,14.69
2023-05-05T17:59:54.305Z,14.54
2023-05-05T18:04:58.430Z,14.38
2023-05-05T18:10:04.065Z,13.98
2023-05-05T18:15:09.582Z,14.00
2023-05-05T18:20:18.413Z,14.02
2023-05-05T18:25:24.506Z,13.89
2023-05-05T18:30:32.243Z,13.92
2023-05-05T18:35:38.178Z,14.01
2023-05-05T18:40:44.217Z,14.14
2023-05-05T18:45:49.065Z,14.07
2023-05-05T18:50:53.245Z,13.81
2023-05-05T18:55:59.050Z,13.92
2023-05-05T19:01:04.566Z,13.96
2023-05-05T19:06:10.810Z,14.10
2023-05-05T19:11:16.713Z,14.27
2023-05-05T19:16:22.162Z,14.19
2023-05-05T19:21:27.513Z,13.72
2023-05-05T19:26:34.728Z,13.77
2023-05-05T19:31:39.227Z,13.71
2023-05-05T19:36:44.150Z,13.53
2023-05-05T19:41:49.770Z,13.37
2023-05-05T19:46:54.183Z,13.52
2023-05-05T19:51:59.004Z,13.27
2023-05-05T19:57:05.492Z,13.43
2023-05-05T20:02:11.790Z,13.27
2023-05-05T20:07:17.915Z,13.14
2023-05-05T20:12:23.640Z,13.16
2023-05-05T20:17:29.811Z,13.26
2023-05-05T20:22:34.225Z,13.34
2023-05-05T20:27:40.725Z,13.13
2023-05-05T20:32:45.012Z,13.06
2023-05-05T20:37:49.060Z,13.23
2023-05-05T20:42:54.677Z,13.17
2023-05-05T20:47:59.396Z,13.12
2023-05-05T20:53:05.978Z,13.18
2023-05-05T20:58:12.418Z,13.07
2023-05-05T21:03:16.897Z,12.58
2023-05-05T21:08:20.976Z,12.93
2023-05-05T21:13:26.444Z,12.48
2023-05-05T21:18:30.464Z,12.37
2023-05-05T21:23:34.785Z,12.63
2023-05-05T21:28:41.467Z,12.67
2023-05-05T21:33:46.472Z,12.30
2023-05-05T21:38:50.761Z,11.97
2023-05-05T21:43:56.389Z,11.72
2023-05-05T21:49:01.118Z,11.59
2023-05-05T21:54:05.146Z,11.45
2023-05-05T21:59:11.199Z,11.16
2023-05-05T22:04:15.234Z,11.12
2023-05-05T22:09:19.343Z,11.33
2023-05-05T22:14:25.327Z,11.11
2023-05-05T22:19:29.392Z,10.80
2023-05-05T22:24:33.440Z,10.65
2023-05-05T22:29:39.013Z,10.70
2023-05-05T22:34:43.527Z,10.24
2023-05-05T22:39:47.537Z,10.02
2023-05-05T22:44:52.984Z,10.11
2023-05-05T22:49:57.425Z,10.24
2023-05-05T22:55:01.496Z,10.34
2023-05-05T23:00:09.264Z,10.13
2023-05-05T23:05:13.280Z,10.05
2023-05-05T23:10:17.425Z,9.62
2023-05-05T23:15:23.139Z,9.57
2023-05-05T23:20:27.268Z,9.74
2023-05-05T23:25:31.496Z,9.97
2023-05-05T23:30:36.913Z,9.93
2023-05-05T23:35:45.279Z,10.23
2023-05-05T23:40:49.478Z,10.25
2023-05-05T23:45:55.329Z,10.20
2023-05-05T23:50:59.507Z,10.23
2023-05-05T23:56:04.830Z,10.06
